sensor_id;sensor_type;location;lat;lon;timestamp;pressure;altitude;pressure_sealevel;temperature
61189;BMP280;47054;39.716;2.904;2022-10-20T00:01:09;100422.47;;;27.49
61189;BMP280;47054;39.716;2.904;2022-10-20T00:03:55;100425.09;;;27.52
61189;BMP280;47054;39.716;2.904;2022-10-20T00:06:39;100424.31;;;27.52
61189;BMP280;47054;39.716;2.904;2022-10-20T00:09:24;100407.31;;;27.48
61189;BMP280;47054;39.716;2.904;2022-10-20T00:12:08;100400.59;;;27.40
61189;BMP280;47054;39.716;2.904;2022-10-20T00:14:53;100417.34;;;27.51
61189;BMP280;47054;39.716;2.904;2022-10-20T00:17:38;100427.47;;;27.50
61189;BMP280;47054;39.716;2.904;2022-10-20T00:20:22;100428.22;;;27.51
61189;BMP280;47054;39.716;2.904;2022-10-20T00:23:06;100418.97;;;27.48
61189;BMP280;47054;39.716;2.904;2022-10-20T00:26:06;100405.25;;;27.52
61189;BMP280;47054;39.716;2.904;2022-10-20T00:28:52;100403.41;;;27.49
61189;BMP280;47054;39.716;2.904;2022-10-20T00:31:37;100397.72;;;27.43
61189;BMP280;47054;39.716;2.904;2022-10-20T00:34:22;100419.84;;;27.45
61189;BMP280;47054;39.716;2.904;2022-10-20T00:37:06;100417.47;;;27.47
61189;BMP280;47054;39.716;2.904;2022-10-20T00:39:51;100406.56;;;27.47
61189;BMP280;47054;39.716;2.904;2022-10-20T00:42:36;100402.31;;;27.46
61189;BMP280;47054;39.716;2.904;2022-10-20T00:45:22;100396.88;;;27.46
61189;BMP280;47054;39.716;2.904;2022-10-20T00:48:14;100392.94;;;27.47
61189;BMP280;47054;39.716;2.904;2022-10-20T00:51:02;100398.06;;;27.45
61189;BMP280;47054;39.716;2.904;2022-10-20T00:53:50;100390.88;;;27.39
61189;BMP280;47054;39.716;2.904;2022-10-20T00:56:39;100406.22;;;27.45
61189;BMP280;47054;39.716;2.904;2022-10-20T00:59:31;100401.56;;;27.46
61189;BMP280;47054;39.716;2.904;2022-10-20T01:02:16;100395.44;;;27.42
61189;BMP280;47054;39.716;2.904;2022-10-20T01:05:01;100397.00;;;27.43
61189;BMP280;47054;39.716;2.904;2022-10-20T01:07:46;100397.72;;;27.43
61189;BMP280;47054;39.716;2.904;2022-10-20T01:11:21;100397.72;;;27.43
61189;BMP280;47054;39.716;2.904;2022-10-20T01:29:33;100381.97;;;27.38
61189;BMP280;47054;39.716;2.904;2022-10-20T01:35:39;100360.28;;;27.35
61189;BMP280;47054;39.716;2.904;2022-10-20T01:38:35;100364.50;;;27.36
61189;BMP280;47054;39.716;2.904;2022-10-20T01:41:35;100364.50;;;27.36
61189;BMP280;47054;39.716;2.904;2022-10-20T01:44:25;100356.09;;;27.30
61189;BMP280;47054;39.716;2.904;2022-10-20T01:47:13;100358.44;;;27.32
61189;BMP280;47054;39.716;2.904;2022-10-20T01:49:58;100364.94;;;27.34
61189;BMP280;47054;39.716;2.904;2022-10-20T01:52:42;100357.97;;;27.33
61189;BMP280;47054;39.716;2.904;2022-10-20T01:55:27;100353.28;;;27.34
61189;BMP280;47054;39.716;2.904;2022-10-20T02:05:13;100353.28;;;27.34
61189;BMP280;47054;39.716;2.904;2022-10-20T02:08:11;100352.97;;;27.32
61189;BMP280;47054;39.716;2.904;2022-10-20T02:11:00;100356.88;;;27.31
61189;BMP280;47054;39.716;2.904;2022-10-20T02:13:46;100358.06;;;27.30
61189;BMP280;47054;39.716;2.904;2022-10-20T02:16:38;100352.97;;;27.32
61189;BMP280;47054;39.716;2.904;2022-10-20T02:19:26;100356.09;;;27.30
61189;BMP280;47054;39.716;2.904;2022-10-20T02:22:13;100344.44;;;27.30
61189;BMP280;47054;39.716;2.904;2022-10-20T02:24:59;100347.94;;;27.30
61189;BMP280;47054;39.716;2.904;2022-10-20T02:27:45;100347.16;;;27.30
61189;BMP280;47054;39.716;2.904;2022-10-20T02:30:31;100349.91;;;27.30
61189;BMP280;47054;39.716;2.904;2022-10-20T02:33:17;100358.06;;;27.30
61189;BMP280;47054;39.716;2.904;2022-10-20T02:36:05;100344.16;;;27.28
61189;BMP280;47054;39.716;2.904;2022-10-20T02:38:49;100338.03;;;27.24
61189;BMP280;47054;39.716;2.904;2022-10-20T02:41:35;100340.66;;;27.27
61189;BMP280;47054;39.716;2.904;2022-10-20T02:44:20;100350.38;;;27.28
61189;BMP280;47054;39.716;2.904;2022-10-20T02:47:06;100351.13;;;27.29
61189;BMP280;47054;39.716;2.904;2022-10-20T02:49:50;100334.13;;;27.25
61189;BMP280;47054;39.716;2.904;2022-10-20T02:52:35;100351.53;;;27.27
61189;BMP280;47054;39.716;2.904;2022-10-20T02:55:21;100348.81;;;27.27
61189;BMP280;47054;39.716;2.904;2022-10-20T02:58:05;100347.28;;;27.26
61189;BMP280;47054;39.716;2.904;2022-10-20T03:00:50;100347.28;;;27.26
61189;BMP280;47054;39.716;2.904;2022-10-20T03:03:34;100350.78;;;27.27
61189;BMP280;47054;39.716;2.904;2022-10-20T03:06:19;100343.84;;;27.26
61189;BMP280;47054;39.716;2.904;2022-10-20T03:09:03;100339.09;;;27.26
61189;BMP280;47054;39.716;2.904;2022-10-20T03:11:48;100346.97;;;27.24
61189;BMP280;47054;39.716;2.904;2022-10-20T03:14:33;100338.50;;;27.22
61189;BMP280;47054;39.716;2.904;2022-10-20T03:17:17;100341.97;;;27.23
61189;BMP280;47054;39.716;2.904;2022-10-20T03:20:03;100349.69;;;27.24
61189;BMP280;47054;39.716;2.904;2022-10-20T03:22:48;100345.88;;;27.22
61189;BMP280;47054;39.716;2.904;2022-10-20T03:25:33;100334.78;;;27.16
61189;BMP280;47054;39.716;2.904;2022-10-20T03:28:17;100347.84;;;27.21
61189;BMP280;47054;39.716;2.904;2022-10-20T03:31:02;100343.16;;;27.22
61189;BMP280;47054;39.716;2.904;2022-10-20T03:33:47;100342.41;;;27.21
61189;BMP280;47054;39.716;2.904;2022-10-20T03:36:32;100344.34;;;27.21
61189;BMP280;47054;39.716;2.904;2022-10-20T03:39:17;100340.13;;;27.20
61189;BMP280;47054;39.716;2.904;2022-10-20T03:42:02;100338.59;;;27.19
61189;BMP280;47054;39.716;2.904;2022-10-20T03:44:46;100339.88;;;27.14
61189;BMP280;47054;39.716;2.904;2022-10-20T03:47:31;100339.09;;;27.14
61189;BMP280;47054;39.716;2.904;2022-10-20T03:50:15;100350.34;;;27.16
61189;BMP280;47054;39.716;2.904;2022-10-20T03:53:00;100355.34;;;27.17
61189;BMP280;47054;39.716;2.904;2022-10-20T03:55:45;100361.22;;;27.16
61189;BMP280;47054;39.716;2.904;2022-10-20T03:58:29;100356.56;;;27.16
61189;BMP280;47054;39.716;2.904;2022-10-20T04:01:19;100333.66;;;27.01
61189;BMP280;47054;39.716;2.904;2022-10-20T04:04:05;100357.75;;;27.15
61189;BMP280;47054;39.716;2.904;2022-10-20T04:06:49;100346.63;;;27.10
61189;BMP280;47054;39.716;2.904;2022-10-20T04:09:34;100364.38;;;27.14
61189;BMP280;47054;39.716;2.904;2022-10-20T04:12:18;100368.31;;;27.13
61189;BMP280;47054;39.716;2.904;2022-10-20T04:15:03;100376.13;;;27.11
61189;BMP280;47054;39.716;2.904;2022-10-20T04:17:48;100374.19;;;27.12
61189;BMP280;47054;39.716;2.904;2022-10-20T04:20:33;100381.59;;;27.11
61189;BMP280;47054;39.716;2.904;2022-10-20T04:23:17;100386.25;;;27.11
61189;BMP280;47054;39.716;2.904;2022-10-20T04:26:13;100382.34;;;27.12
61189;BMP280;47054;39.716;2.904;2022-10-20T04:28:58;100383.53;;;27.11
61189;BMP280;47054;39.716;2.904;2022-10-20T04:31:43;100382.44;;;27.08
61189;BMP280;47054;39.716;2.904;2022-10-20T04:34:28;100390.63;;;27.08
61189;BMP280;47054;39.716;2.904;2022-10-20T04:37:12;100391.06;;;27.07
61189;BMP280;47054;39.716;2.904;2022-10-20T04:39:56;100388.34;;;27.07
61189;BMP280;47054;39.716;2.904;2022-10-20T04:42:41;100390.28;;;27.06
61189;BMP280;47054;39.716;2.904;2022-10-20T04:45:26;100402.38;;;27.05
61189;BMP280;47054;39.716;2.904;2022-10-20T04:48:10;100394.94;;;27.06
61189;BMP280;47054;39.716;2.904;2022-10-20T04:51:09;100380.78;;;26.98
61189;BMP280;47054;39.716;2.904;2022-10-20T04:53:54;100392.31;;;27.02
61189;BMP280;47054;39.716;2.904;2022-10-20T04:56:38;100391.16;;;27.03
61189;BMP280;47054;39.716;2.904;2022-10-20T04:59:23;100396.59;;;27.03
61189;BMP280;47054;39.716;2.904;2022-10-20T05:02:07;100387.75;;;26.99
61189;BMP280;47054;39.716;2.904;2022-10-20T05:04:54;100391.16;;;27.03
61189;BMP280;47054;39.716;2.904;2022-10-20T05:07:38;100391.59;;;27.02
61189;BMP280;47054;39.716;2.904;2022-10-20T05:10:23;100390.81;;;27.01
61189;BMP280;47054;39.716;2.904;2022-10-20T05:13:08;100382.66;;;27.01
61189;BMP280;47054;39.716;2.904;2022-10-20T05:15:52;100385.38;;;27.01
61189;BMP280;47054;39.716;2.904;2022-10-20T05:18:37;100378.50;;;26.97
61189;BMP280;47054;39.716;2.904;2022-10-20T05:21:26;100391.59;;;27.02
61189;BMP280;47054;39.716;2.904;2022-10-20T05:24:14;100392.78;;;27.01
61189;BMP280;47054;39.716;2.904;2022-10-20T05:26:58;100384.25;;;26.99
61189;BMP280;47054;39.716;2.904;2022-10-20T05:29:43;100386.97;;;26.99
61189;BMP280;47054;39.716;2.904;2022-10-20T05:32:28;100385.03;;;26.99
61189;BMP280;47054;39.716;2.904;2022-10-20T05:35:13;100378.81;;;26.99
61189;BMP280;47054;39.716;2.904;2022-10-20T05:37:57;100376.09;;;26.99
61189;BMP280;47054;39.716;2.904;2022-10-20T05:40:42;100380.78;;;26.98
61189;BMP280;47054;39.716;2.904;2022-10-20T05:43:26;100367.31;;;26.95
61189;BMP280;47054;39.716;2.904;2022-10-20T05:46:12;100374.59;;;26.98
61189;BMP280;47054;39.716;2.904;2022-10-20T05:48:58;100377.34;;;26.98
61189;BMP280;47054;39.716;2.904;2022-10-20T05:51:45;100377.72;;;26.96
61189;BMP280;47054;39.716;2.904;2022-10-20T05:54:30;100375.00;;;26.96
61189;BMP280;47054;39.716;2.904;2022-10-20T05:57:14;100378.91;;;26.95
61189;BMP280;47054;39.716;2.904;2022-10-20T05:59:59;100367.81;;;26.90
61189;BMP280;47054;39.716;2.904;2022-10-20T06:02:43;100372.38;;;26.93
61189;BMP280;47054;39.716;2.904;2022-10-20T06:05:27;100370.13;;;26.91
61189;BMP280;47054;39.716;2.904;2022-10-20T06:08:12;100378.59;;;26.93
61189;BMP280;47054;39.716;2.904;2022-10-20T06:11:02;100371.22;;;26.94
61189;BMP280;47054;39.716;2.904;2022-10-20T06:13:47;100364.78;;;26.88
61189;BMP280;47054;39.716;2.904;2022-10-20T06:16:32;100366.72;;;26.87
61189;BMP280;47054;39.716;2.904;2022-10-20T06:19:16;100379.00;;;26.92
61189;BMP280;47054;39.716;2.904;2022-10-20T06:22:01;100363.44;;;26.80
61189;BMP280;47054;39.716;2.904;2022-10-20T06:24:45;100379.47;;;26.90
61189;BMP280;47054;39.716;2.904;2022-10-20T06:27:30;100383.75;;;26.91
61189;BMP280;47054;39.716;2.904;2022-10-20T06:30:14;100380.25;;;26.91
61189;BMP280;47054;39.716;2.904;2022-10-20T06:32:59;100384.91;;;26.90
61189;BMP280;47054;39.716;2.904;2022-10-20T06:35:43;100378.69;;;26.90
61189;BMP280;47054;39.716;2.904;2022-10-20T06:38:28;100382.97;;;26.91
61189;BMP280;47054;39.716;2.904;2022-10-20T06:41:16;100383.75;;;26.91
61189;BMP280;47054;39.716;2.904;2022-10-20T06:44:01;100390.03;;;26.88
61189;BMP280;47054;39.716;2.904;2022-10-20T06:46:46;100390.88;;;26.85
61189;BMP280;47054;39.716;2.904;2022-10-20T06:49:31;100389.28;;;26.88
61189;BMP280;47054;39.716;2.904;2022-10-20T06:52:15;100396.19;;;26.89
61189;BMP280;47054;39.716;2.904;2022-10-20T06:55:01;100398.91;;;26.89
61189;BMP280;47054;39.716;2.904;2022-10-20T06:57:45;100393.69;;;26.82
61189;BMP280;47054;39.716;2.904;2022-10-20T07:00:31;100402.88;;;26.88
61189;BMP280;47054;39.716;2.904;2022-10-20T07:03:15;100409.06;;;26.88
61189;BMP280;47054;39.716;2.904;2022-10-20T07:06:00;100414.94;;;26.87
61189;BMP280;47054;39.716;2.904;2022-10-20T07:08:45;100427.00;;;26.86
61189;BMP280;47054;39.716;2.904;2022-10-20T07:11:30;100418.84;;;26.86
61189;BMP280;47054;39.716;2.904;2022-10-20T07:14:15;100419.59;;;26.86
61189;BMP280;47054;39.716;2.904;2022-10-20T07:17:00;100420.06;;;26.85
61189;BMP280;47054;39.716;2.904;2022-10-20T07:19:44;100428.22;;;26.85
61189;BMP280;47054;39.716;2.904;2022-10-20T07:22:29;100430.97;;;26.85
61189;BMP280;47054;39.716;2.904;2022-10-20T07:25:13;100436.41;;;26.85
61189;BMP280;47054;39.716;2.904;2022-10-20T07:27:58;100444.56;;;26.85
61189;BMP280;47054;39.716;2.904;2022-10-20T07:30:42;100435.72;;;26.81
61189;BMP280;47054;39.716;2.904;2022-10-20T07:33:27;100447.28;;;26.85
61189;BMP280;47054;39.716;2.904;2022-10-20T07:36:16;100439.13;;;26.85
61189;BMP280;47054;39.716;2.904;2022-10-20T07:39:03;100443.31;;;26.86
61189;BMP280;47054;39.716;2.904;2022-10-20T07:41:48;100450.09;;;26.81
61189;BMP280;47054;39.716;2.904;2022-10-20T07:44:33;100449.22;;;26.84
61189;BMP280;47054;39.716;2.904;2022-10-20T07:47:17;100453.91;;;26.84
61189;BMP280;47054;39.716;2.904;2022-10-20T07:50:02;100441.84;;;26.85
61189;BMP280;47054;39.716;2.904;2022-10-20T07:52:51;100443.31;;;26.86
61189;BMP280;47054;39.716;2.904;2022-10-20T07:55:36;100449.22;;;26.84
61189;BMP280;47054;39.716;2.904;2022-10-20T07:58:20;100451.19;;;26.84
61189;BMP280;47054;39.716;2.904;2022-10-20T08:01:05;100455.84;;;26.83
61189;BMP280;47054;39.716;2.904;2022-10-20T08:03:50;100461.63;;;26.85
61189;BMP280;47054;39.716;2.904;2022-10-20T08:06:34;100456.19;;;26.85
61189;BMP280;47054;39.716;2.904;2022-10-20T08:09:18;100454.22;;;26.86
61189;BMP280;47054;39.716;2.904;2022-10-20T08:12:03;100455.44;;;26.85
61189;BMP280;47054;39.716;2.904;2022-10-20T08:14:48;100457.38;;;26.84
61189;BMP280;47054;39.716;2.904;2022-10-20T08:17:33;100461.63;;;26.85
61189;BMP280;47054;39.716;2.904;2022-10-20T08:20:17;100458.91;;;26.85
61189;BMP280;47054;39.716;2.904;2022-10-20T08:23:03;100451.59;;;26.82
61189;BMP280;47054;39.716;2.904;2022-10-20T08:25:47;100458.91;;;26.85
61189;BMP280;47054;39.716;2.904;2022-10-20T08:28:33;100466.72;;;26.83
61189;BMP280;47054;39.716;2.904;2022-10-20T08:31:18;100472.50;;;26.85
61189;BMP280;47054;39.716;2.904;2022-10-20T08:34:02;100477.94;;;26.85
61189;BMP280;47054;39.716;2.904;2022-10-20T08:36:49;100474.50;;;26.85
61189;BMP280;47054;39.716;2.904;2022-10-20T08:39:33;100478.69;;;26.86
61189;BMP280;47054;39.716;2.904;2022-10-20T08:42:18;100482.19;;;26.86
61189;BMP280;47054;39.716;2.904;2022-10-20T08:45:06;100473.25;;;26.86
61189;BMP280;47054;39.716;2.904;2022-10-20T08:48:00;100466.63;;;26.87
61189;BMP280;47054;39.716;2.904;2022-10-20T08:50:47;100470.53;;;26.86
61189;BMP280;47054;39.716;2.904;2022-10-20T08:53:38;100461.28;;;26.83
61189;BMP280;47054;39.716;2.904;2022-10-20T08:56:26;100455.19;;;26.79
61189;BMP280;47054;39.716;2.904;2022-10-20T09:02:14;100457.69;;;26.86
61189;BMP280;47054;39.716;2.904;2022-10-20T09:05:00;100453.22;;;26.80
61189;BMP280;47054;39.716;2.904;2022-10-20T09:07:45;100464.34;;;26.85
61189;BMP280;47054;39.716;2.904;2022-10-20T09:10:34;100462.84;;;26.84
61189;BMP280;47054;39.716;2.904;2022-10-20T09:13:23;100460.09;;;26.84
61189;BMP280;47054;39.716;2.904;2022-10-20T09:16:20;100458.47;;;26.87
61189;BMP280;47054;39.716;2.904;2022-10-20T09:19:18;100462.38;;;26.86
61189;BMP280;47054;39.716;2.904;2022-10-20T09:22:05;100462.84;;;26.84
61189;BMP280;47054;39.716;2.904;2022-10-20T09:24:51;100458.16;;;26.85
61189;BMP280;47054;39.716;2.904;2022-10-20T09:27:37;100453.56;;;26.82
61189;BMP280;47054;39.716;2.904;2022-10-20T09:33:32;100458.47;;;26.87
61189;BMP280;47054;39.716;2.904;2022-10-20T09:36:18;100453.47;;;26.85
61189;BMP280;47054;39.716;2.904;2022-10-20T09:39:04;100450.09;;;26.81
61189;BMP280;47054;39.716;2.904;2022-10-20T09:41:49;100452.72;;;26.85
61189;BMP280;47054;39.716;2.904;2022-10-20T09:44:43;100455.84;;;26.83
61189;BMP280;47054;39.716;2.904;2022-10-20T09:47:29;100446.03;;;26.86
61189;BMP280;47054;39.716;2.904;2022-10-20T09:50:36;100446.41;;;26.88
61189;BMP280;47054;39.716;2.904;2022-10-20T09:53:32;100429.25;;;26.75
61189;BMP280;47054;39.716;2.904;2022-10-20T09:59:26;100446.81;;;26.86
61189;BMP280;47054;39.716;2.904;2022-10-20T10:05:18;100441.38;;;26.86
61189;BMP280;47054;39.716;2.904;2022-10-20T10:08:03;100439.13;;;26.85
61189;BMP280;47054;39.716;2.904;2022-10-20T10:11:03;100438.66;;;26.86
61189;BMP280;47054;39.716;2.904;2022-10-20T10:13:50;100439.13;;;26.85
61189;BMP280;47054;39.716;2.904;2022-10-20T10:16:40;100433.22;;;26.86
61189;BMP280;47054;39.716;2.904;2022-10-20T10:19:28;100431.69;;;26.85
61189;BMP280;47054;39.716;2.904;2022-10-20T10:22:13;100436.41;;;26.85
61189;BMP280;47054;39.716;2.904;2022-10-20T10:24:58;100433.22;;;26.86
61189;BMP280;47054;39.716;2.904;2022-10-20T10:27:59;100427.38;;;26.88
61189;BMP280;47054;39.716;2.904;2022-10-20T10:30:44;100418.97;;;26.82
61189;BMP280;47054;39.716;2.904;2022-10-20T10:33:28;100422.31;;;26.86
61189;BMP280;47054;39.716;2.904;2022-10-20T10:36:36;100422.66;;;26.88
61189;BMP280;47054;39.716;2.904;2022-10-20T10:39:21;100413.41;;;26.86
61189;BMP280;47054;39.716;2.904;2022-10-20T10:42:17;100416.88;;;26.86
61189;BMP280;47054;39.716;2.904;2022-10-20T10:50:59;100414.50;;;26.88
61189;BMP280;47054;39.716;2.904;2022-10-20T10:56:48;100412.66;;;26.85
61189;BMP280;47054;39.716;2.904;2022-10-20T10:59:34;100414.16;;;26.86
61189;BMP280;47054;39.716;2.904;2022-10-20T11:09:09;100410.69;;;26.86
61189;BMP280;47054;39.716;2.904;2022-10-20T11:21:22;100381.31;;;26.81
61189;BMP280;47054;39.716;2.904;2022-10-20T11:27:25;100384.69;;;26.85
61189;BMP280;47054;39.716;2.904;2022-10-20T11:30:16;100369.31;;;26.78
61189;BMP280;47054;39.716;2.904;2022-10-20T11:33:10;100366.41;;;26.85
61189;BMP280;47054;39.716;2.904;2022-10-20T11:36:13;100366.72;;;26.87
61189;BMP280;47054;39.716;2.904;2022-10-20T11:38:59;100357.59;;;26.81
61189;BMP280;47054;39.716;2.904;2022-10-20T11:41:47;100365.53;;;26.88
61189;BMP280;47054;39.716;2.904;2022-10-20T11:44:38;100349.19;;;26.88
61189;BMP280;47054;39.716;2.904;2022-10-20T11:47:38;100342.56;;;26.89
61189;BMP280;47054;39.716;2.904;2022-10-20T11:50:25;100341.03;;;26.88
61189;BMP280;47054;39.716;2.904;2022-10-20T12:09:13;100314.94;;;26.91
61189;BMP280;47054;39.716;2.904;2022-10-20T12:15:23;100293.66;;;26.86
61189;BMP280;47054;39.716;2.904;2022-10-20T12:18:23;100304.81;;;26.91
61189;BMP280;47054;39.716;2.904;2022-10-20T12:21:11;100292.41;;;26.90
61189;BMP280;47054;39.716;2.904;2022-10-20T12:23:56;100277.72;;;26.88
61189;BMP280;47054;39.716;2.904;2022-10-20T12:35:29;100274.22;;;26.87
61189;BMP280;47054;39.716;2.904;2022-10-20T12:38:16;100279.97;;;26.89
61189;BMP280;47054;39.716;2.904;2022-10-20T12:41:02;100278.78;;;26.90
61189;BMP280;47054;39.716;2.904;2022-10-20T12:43:49;100278.31;;;26.92
61189;BMP280;47054;39.716;2.904;2022-10-20T12:46:40;100268.97;;;26.93
61189;BMP280;47054;39.716;2.904;2022-10-20T12:49:37;100259.75;;;26.90
61189;BMP280;47054;39.716;2.904;2022-10-20T12:52:27;100259.66;;;26.94
61189;BMP280;47054;39.716;2.904;2022-10-20T12:55:26;100251.78;;;26.96
61189;BMP280;47054;39.716;2.904;2022-10-20T13:01:10;100246.34;;;26.96
61189;BMP280;47054;39.716;2.904;2022-10-20T13:03:55;100238.09;;;26.87
61189;BMP280;47054;39.716;2.904;2022-10-20T13:06:40;100249.06;;;26.96
61189;BMP280;47054;39.716;2.904;2022-10-20T13:09:25;100243.63;;;26.96
61189;BMP280;47054;39.716;2.904;2022-10-20T13:12:25;100247.44;;;26.98
61189;BMP280;47054;39.716;2.904;2022-10-20T13:15:15;100242.44;;;26.97
61189;BMP280;47054;39.716;2.904;2022-10-20T13:21:25;100234.59;;;26.99
61189;BMP280;47054;39.716;2.904;2022-10-20T13:24:27;100233.84;;;26.98
61189;BMP280;47054;39.716;2.904;2022-10-20T13:27:13;100230.88;;;26.93
61189;BMP280;47054;39.716;2.904;2022-10-20T13:29:59;100223.19;;;26.91
61189;BMP280;47054;39.716;2.904;2022-10-20T13:32:51;100215.63;;;26.95
61189;BMP280;47054;39.716;2.904;2022-10-20T13:35:52;100216.41;;;26.96
61189;BMP280;47054;39.716;2.904;2022-10-20T13:48:26;100202.69;;;26.99
61189;BMP280;47054;39.716;2.904;2022-10-20T13:51:24;100197.34;;;26.96
61189;BMP280;47054;39.716;2.904;2022-10-20T13:54:24;100195.41;;;26.96
61189;BMP280;47054;39.716;2.904;2022-10-20T13:57:33;100208.47;;;27.01
61189;BMP280;47054;39.716;2.904;2022-10-20T14:00:28;100203.47;;;27.00
61189;BMP280;47054;39.716;2.904;2022-10-20T14:03:16;100203.03;;;27.01
61189;BMP280;47054;39.716;2.904;2022-10-20T14:06:01;100201.50;;;27.00
61189;BMP280;47054;39.716;2.904;2022-10-20T14:08:45;100201.81;;;27.02
61189;BMP280;47054;39.716;2.904;2022-10-20T14:11:30;100206.53;;;27.02
61189;BMP280;47054;39.716;2.904;2022-10-20T14:14:20;100204.91;;;27.04
61189;BMP280;47054;39.716;2.904;2022-10-20T14:17:07;100204.91;;;27.04
61189;BMP280;47054;39.716;2.904;2022-10-20T14:20:17;100209.47;;;27.07
61189;BMP280;47054;39.716;2.904;2022-10-20T14:23:11;100204.44;;;27.06
61189;BMP280;47054;39.716;2.904;2022-10-20T14:25:57;100208.38;;;27.05
61189;BMP280;47054;39.716;2.904;2022-10-20T14:28:42;100194.88;;;27.01
61189;BMP280;47054;39.716;2.904;2022-10-20T14:31:27;100207.94;;;27.06
61189;BMP280;47054;39.716;2.904;2022-10-20T14:34:29;100202.03;;;27.08
61189;BMP280;47054;39.716;2.904;2022-10-20T14:37:27;100193.88;;;27.08
61189;BMP280;47054;39.716;2.904;2022-10-20T14:40:22;100200.09;;;27.08
61189;BMP280;47054;39.716;2.904;2022-10-20T14:43:16;100197.38;;;27.08
61189;BMP280;47054;39.716;2.904;2022-10-20T14:46:02;100197.38;;;27.08
61189;BMP280;47054;39.716;2.904;2022-10-20T14:48:49;100198.88;;;27.09
61189;BMP280;47054;39.716;2.904;2022-10-20T14:51:59;100203.47;;;27.12
61189;BMP280;47054;39.716;2.904;2022-10-20T14:54:45;100209.78;;;27.09
61189;BMP280;47054;39.716;2.904;2022-10-20T14:57:43;100211.66;;;27.12
61189;BMP280;47054;39.716;2.904;2022-10-20T15:00:32;100216.31;;;27.12
61189;BMP280;47054;39.716;2.904;2022-10-20T15:03:17;100214.38;;;27.12
61189;BMP280;47054;39.716;2.904;2022-10-20T15:06:02;100207.03;;;27.09
61189;BMP280;47054;39.716;2.904;2022-10-20T15:08:52;100216.63;;;27.14
61189;BMP280;47054;39.716;2.904;2022-10-20T15:11:38;100208.44;;;27.14
61189;BMP280;47054;39.716;2.904;2022-10-20T15:14:22;100209.22;;;27.14
61189;BMP280;47054;39.716;2.904;2022-10-20T15:17:30;100208.34;;;27.17
61189;BMP280;47054;39.716;2.904;2022-10-20T15:23:23;100206.06;;;27.16
61189;BMP280;47054;39.716;2.904;2022-10-20T15:26:11;100217.72;;;27.16
61189;BMP280;47054;39.716;2.904;2022-10-20T15:28:56;100218.47;;;27.17
61189;BMP280;47054;39.716;2.904;2022-10-20T15:31:41;100216.94;;;27.16
61189;BMP280;47054;39.716;2.904;2022-10-20T15:34:25;100211.06;;;27.17
61189;BMP280;47054;39.716;2.904;2022-10-20T15:37:10;100223.50;;;27.18
61189;BMP280;47054;39.716;2.904;2022-10-20T15:39:54;100205.31;;;27.15
61189;BMP280;47054;39.716;2.904;2022-10-20T15:42:38;100218.06;;;27.18
61189;BMP280;47054;39.716;2.904;2022-10-20T15:45:24;100214.44;;;27.21
61189;BMP280;47054;39.716;2.904;2022-10-20T15:48:08;100204.00;;;27.20
61189;BMP280;47054;39.716;2.904;2022-10-20T15:50:54;100207.81;;;27.22
61189;BMP280;47054;39.716;2.904;2022-10-20T15:53:40;100200.19;;;27.17
61189;BMP280;47054;39.716;2.904;2022-10-20T15:56:24;100211.28;;;27.23
61189;BMP280;47054;39.716;2.904;2022-10-20T15:59:09;100203.13;;;27.23
61189;BMP280;47054;39.716;2.904;2022-10-20T16:01:54;100207.34;;;27.24
61189;BMP280;47054;39.716;2.904;2022-10-20T16:04:39;100201.91;;;27.24
61189;BMP280;47054;39.716;2.904;2022-10-20T16:07:23;100199.19;;;27.24
61189;BMP280;47054;39.716;2.904;2022-10-20T16:10:09;100201.91;;;27.24
61189;BMP280;47054;39.716;2.904;2022-10-20T16:12:55;100190.59;;;27.25
61189;BMP280;47054;39.716;2.904;2022-10-20T16:15:41;100193.31;;;27.25
61189;BMP280;47054;39.716;2.904;2022-10-20T16:18:28;100188.75;;;27.22
61189;BMP280;47054;39.716;2.904;2022-10-20T16:21:13;100193.63;;;27.27
61189;BMP280;47054;39.716;2.904;2022-10-20T16:23:57;100185.47;;;27.27
61189;BMP280;47054;39.716;2.904;2022-10-20T16:26:44;100194.41;;;27.28
61189;BMP280;47054;39.716;2.904;2022-10-20T16:29:28;100188.97;;;27.28
61189;BMP280;47054;39.716;2.904;2022-10-20T16:32:13;100196.69;;;27.29
61189;BMP280;47054;39.716;2.904;2022-10-20T16:34:57;100193.97;;;27.29
61189;BMP280;47054;39.716;2.904;2022-10-20T16:37:42;100187.31;;;27.30
61189;BMP280;47054;39.716;2.904;2022-10-20T16:40:27;100186.53;;;27.30
61189;BMP280;47054;39.716;2.904;2022-10-20T16:43:11;100181.44;;;27.32
61189;BMP280;47054;39.716;2.904;2022-10-20T16:45:56;100192.34;;;27.32
61189;BMP280;47054;39.716;2.904;2022-10-20T16:48:40;100190.03;;;27.30
61189;BMP280;47054;39.716;2.904;2022-10-20T16:51:25;100193.84;;;27.33
61189;BMP280;47054;39.716;2.904;2022-10-20T16:54:11;100189.16;;;27.33
61189;BMP280;47054;39.716;2.904;2022-10-20T16:56:56;100189.72;;;27.28
61189;BMP280;47054;39.716;2.904;2022-10-20T16:59:40;100199.63;;;27.35
61189;BMP280;47054;39.716;2.904;2022-10-20T17:02:26;100196.13;;;27.34
61189;BMP280;47054;39.716;2.904;2022-10-20T17:05:11;100191.13;;;27.33
61189;BMP280;47054;39.716;2.904;2022-10-20T17:07:55;100193.75;;;27.36
61189;BMP280;47054;39.716;2.904;2022-10-20T17:10:40;100188.28;;;27.36
61189;BMP280;47054;39.716;2.904;2022-10-20T17:13:27;100196.47;;;27.36
61189;BMP280;47054;39.716;2.904;2022-10-20T17:16:24;100202.22;;;27.38
61189;BMP280;47054;39.716;2.904;2022-10-20T17:19:09;100191.13;;;27.33
61189;BMP280;47054;39.716;2.904;2022-10-20T17:21:54;100192.97;;;27.36
61189;BMP280;47054;39.716;2.904;2022-10-20T17:24:38;100196.03;;;27.38
61189;BMP280;47054;39.716;2.904;2022-10-20T17:27:23;100196.13;;;27.34
61189;BMP280;47054;39.716;2.904;2022-10-20T17:30:07;100219.31;;;27.39
61189;BMP280;47054;39.716;2.904;2022-10-20T17:32:54;100218.56;;;27.38
61189;BMP280;47054;39.716;2.904;2022-10-20T17:35:39;100224.75;;;27.39
61189;BMP280;47054;39.716;2.904;2022-10-20T17:38:24;100225.84;;;27.41
61189;BMP280;47054;39.716;2.904;2022-10-20T17:41:13;100221.94;;;27.42
61189;BMP280;47054;39.716;2.904;2022-10-20T17:44:02;100223.13;;;27.41